Time;durP1;ratioP1;P1;durP2;ratioP2;P2;SDS_P1;SDS_P2;PMS_P1;PMS_P2;Temp;Humidity;BMP_temperature;BMP_pressure;BME280_temperature;BME280_humidity;BME280_pressure;Samples;Min_cycle;Max_cycle;Signal;HPM_P1;HPM_P2
2023/09/08 00:00:50;;;;;;;1.48;1.38;;;24.90;80.40;;;;;;4969823;28;20094;-76
2023/09/08 00:03:16;;;;;;;1.38;1.38;;;24.90;80.40;;;;;;4967880;28;20504;-76
2023/09/08 00:05:41;;;;;;;1.15;1.15;;;24.90;79.70;;;;;;4969029;28;20590;-76
2023/09/08 00:08:07;;;;;;;1.75;1.65;;;24.90;79.70;;;;;;4968831;28;20563;-76
2023/09/08 00:10:33;;;;;;;1.25;1.25;;;24.90;79.60;;;;;;4971519;28;20070;-76
2023/09/08 00:12:58;;;;;;;1.95;1.50;;;24.90;79.60;;;;;;4969683;28;20476;-76
2023/09/08 00:15:24;;;;;;;1.67;1.60;;;24.80;79.50;;;;;;4970026;28;20054;-76
2023/09/08 00:17:49;;;;;;;1.40;1.30;;;24.90;79.50;;;;;;4969668;28;20579;-76
2023/09/08 00:20:15;;;;;;;1.67;1.58;;;24.90;79.60;;;;;;4967787;28;20053;-76
2023/09/08 00:22:40;;;;;;;2.00;1.90;;;24.90;79.60;;;;;;4972128;28;20130;-76
2023/09/08 00:25:06;;;;;;;1.55;1.45;;;24.90;79.50;;;;;;4968782;28;20584;-76
2023/09/08 00:27:32;;;;;;;1.42;1.40;;;24.90;79.50;;;;;;4969458;28;20063;-76
2023/09/08 00:29:58;;;;;;;1.52;1.40;;;24.90;79.50;;;;;;4968284;28;20039;-76
2023/09/08 00:32:23;;;;;;;1.50;1.40;;;24.80;79.40;;;;;;4969532;28;20563;-76
2023/09/08 00:34:49;;;;;;;1.42;1.33;;;24.90;79.60;;;;;;4970349;28;20105;-76
2023/09/08 00:37:14;;;;;;;3.53;1.85;;;24.90;79.50;;;;;;4967638;28;20065;-76
2023/09/08 00:39:40;;;;;;;1.52;1.42;;;24.90;79.50;;;;;;4966134;28;20476;-76
2023/09/08 00:42:06;;;;;;;1.25;1.25;;;24.90;79.40;;;;;;4965284;28;20046;-76
2023/09/08 00:44:32;;;;;;;1.60;1.50;;;24.90;79.40;;;;;;4969036;28;20042;-76
2023/09/08 00:46:58;;;;;;;1.40;1.40;;;24.90;79.40;;;;;;4964122;28;20042;-76
2023/09/08 00:49:23;;;;;;;1.50;1.40;;;24.90;79.30;;;;;;4966999;28;20105;-76
2023/09/08 00:51:49;;;;;;;1.45;1.45;;;24.90;79.30;;;;;;4965241;28;20034;-76
2023/09/08 00:54:15;;;;;;;1.70;1.60;;;24.90;80.10;;;;;;4967542;28;20065;-76
2023/09/08 00:56:40;;;;;;;1.70;1.63;;;24.90;79.30;;;;;;4966895;28;20030;-76
2023/09/08 00:59:06;;;;;;;1.60;1.50;;;24.90;79.30;;;;;;4964015;28;20459;-76
2023/09/08 01:01:31;;;;;;;1.20;1.20;;;24.80;79.20;;;;;;4982412;28;20130;-76
2023/09/08 01:03:57;;;;;;;1.20;1.20;;;24.90;79.20;;;;;;4966072;28;20138;-76
2023/09/08 01:06:23;;;;;;;1.30;1.20;;;24.90;79.20;;;;;;4966991;28;20573;-76
2023/09/08 01:08:49;;;;;;;1.25;1.25;;;24.90;79.20;;;;;;4968751;28;20042;-76
2023/09/08 01:11:15;;;;;;;1.80;1.70;;;24.80;79.20;;;;;;4983292;28;20067;-76
2023/09/08 01:13:40;;;;;;;1.50;1.50;;;24.80;79.10;;;;;;4969753;28;20525;-76
2023/09/08 01:16:06;;;;;;;1.30;1.20;;;24.90;79.20;;;;;;4967052;28;20050;-76
2023/09/08 01:18:32;;;;;;;1.55;1.55;;;24.90;79.20;;;;;;4969725;28;20042;-76
2023/09/08 01:21:19;;;;;;;1.10;1.10;;;24.80;79.90;;;;;;4968418;28;20082;-76
2023/09/08 01:23:59;;;;;;;1.52;1.45;;;24.90;79.10;;;;;;4968464;28;20512;-76
2023/09/08 01:26:26;;;;;;;2.28;1.75;;;24.80;79.10;;;;;;4965750;28;20039;-76
2023/09/08 01:28:52;;;;;;;2.15;1.50;;;24.90;79.10;;;;;;4965825;28;20054;-76
2023/09/08 01:31:17;;;;;;;3.63;1.50;;;24.80;79.00;;;;;;4951881;28;20047;-76
2023/09/08 01:33:44;;;;;;;1.58;1.52;;;24.80;79.10;;;;;;4966777;28;20047;-76
2023/09/08 01:36:09;;;;;;;1.60;1.50;;;24.80;79.00;;;;;;4966711;28;20094;-76
2023/09/08 01:38:35;;;;;;;1.40;1.30;;;24.80;79.00;;;;;;4966298;28;20042;-76
2023/09/08 01:41:01;;;;;;;1.75;1.65;;;24.80;79.00;;;;;;4968132;28;20031;-76
2023/09/08 01:43:27;;;;;;;1.35;1.33;;;24.90;79.10;;;;;;4969614;28;20027;-76
2023/09/08 01:45:53;;;;;;;1.27;1.27;;;24.80;78.90;;;;;;4966784;28;20042;-76
2023/09/08 01:48:18;;;;;;;1.40;1.30;;;24.80;78.90;;;;;;4967640;28;20109;-76
2023/09/08 01:50:44;;;;;;;1.10;1.10;;;24.80;79.00;;;;;;4966531;28;20039;-76
2023/09/08 01:53:10;;;;;;;2.35;1.95;;;24.80;79.70;;;;;;4966350;28;20421;-76
2023/09/08 01:55:35;;;;;;;1.70;1.60;;;24.80;78.90;;;;;;4968241;28;20137;-76
2023/09/08 01:58:01;;;;;;;1.58;1.35;;;24.80;79.00;;;;;;4964484;28;20058;-76
2023/09/08 02:00:26;;;;;;;1.73;1.63;;;24.80;79.80;;;;;;4966842;28;20572;-76
2023/09/08 02:02:52;;;;;;;1.50;1.40;;;24.80;79.00;;;;;;4967537;28;20452;-76
2023/09/08 02:05:17;;;;;;;1.60;1.50;;;24.80;79.00;;;;;;4967213;28;20070;-76
2023/09/08 02:07:43;;;;;;;1.38;1.35;;;24.80;79.00;;;;;;4968042;28;20027;-76
2023/09/08 02:10:10;;;;;;;1.65;1.55;;;24.80;79.00;;;;;;4965796;28;20043;-76
2023/09/08 02:12:36;;;;;;;1.50;1.40;;;24.80;78.90;;;;;;4968426;28;20398;-76
2023/09/08 02:15:02;;;;;;;1.58;1.55;;;24.80;78.90;;;;;;4968149;28;20057;-76
2023/09/08 02:17:27;;;;;;;1.27;1.20;;;24.80;78.90;;;;;;4965488;28;20162;-76
2023/09/08 02:19:53;;;;;;;1.33;1.33;;;24.80;78.90;;;;;;4968331;28;20505;-76
2023/09/08 02:22:18;;;;;;;1.23;1.23;;;24.80;79.00;;;;;;4967274;28;20043;-76
2023/09/08 02:24:44;;;;;;;1.38;1.30;;;24.80;79.10;;;;;;4965668;28;20053;-76
2023/09/08 02:27:10;;;;;;;1.30;1.30;;;24.80;79.20;;;;;;4966699;28;20524;-76
2023/09/08 02:29:35;;;;;;;1.52;1.42;;;24.80;79.00;;;;;;4967649;28;20073;-76
2023/09/08 02:32:01;;;;;;;1.20;1.20;;;24.80;78.90;;;;;;4967873;28;20420;-76
2023/09/08 02:34:26;;;;;;;1.25;1.25;;;24.80;78.90;;;;;;4966336;28;20053;-76
2023/09/08 02:36:52;;;;;;;1.20;1.20;;;24.80;78.90;;;;;;4967086;28;20116;-76
2023/09/08 02:39:17;;;;;;;1.40;1.40;;;24.80;78.90;;;;;;4966928;28;20066;-76
2023/09/08 02:41:43;;;;;;;1.23;1.23;;;24.80;79.00;;;;;;4967279;28;20050;-76
2023/09/08 02:44:08;;;;;;;1.65;1.35;;;24.80;79.30;;;;;;4966233;28;20050;-76
2023/09/08 02:46:34;;;;;;;1.27;1.25;;;24.80;79.00;;;;;;4967051;28;20575;-76
2023/09/08 02:49:01;;;;;;;1.05;1.05;;;24.80;78.90;;;;;;4979527;28;20539;-76
2023/09/08 02:51:26;;;;;;;1.33;1.23;;;24.80;78.80;;;;;;4966113;28;20098;-76
2023/09/08 02:53:52;;;;;;;1.30;1.30;;;24.80;78.80;;;;;;4965973;28;21550;-76
2023/09/08 02:56:17;;;;;;;1.15;1.15;;;24.80;78.80;;;;;;4963749;28;20135;-76
2023/09/08 02:58:44;;;;;;;1.10;1.10;;;24.80;78.80;;;;;;4969138;28;20067;-76
2023/09/08 03:01:16;;;;;;;1.17;1.02;;;24.80;78.80;;;;;;4964709;28;20047;-76
2023/09/08 03:03:42;;;;;;;1.70;1.60;;;24.80;78.80;;;;;;4966400;28;20062;-76
2023/09/08 03:06:08;;;;;;;1.30;1.30;;;24.70;78.70;;;;;;4966732;28;20055;-76
2023/09/08 03:08:34;;;;;;;1.50;1.40;;;24.80;78.80;;;;;;4966595;28;20053;-76
2023/09/08 03:10:59;;;;;;;1.20;1.20;;;24.80;78.80;;;;;;4967482;28;20052;-76
2023/09/08 03:13:29;;;;;;;1.50;1.40;;;24.80;78.70;;;;;;4967189;28;20055;-76
2023/09/08 03:15:55;;;;;;;1.65;1.55;;;24.70;78.70;;;;;;4965492;28;20084;-76
2023/09/08 03:18:20;;;;;;;1.50;1.40;;;24.70;78.70;;;;;;4966495;28;20055;-76
2023/09/08 03:20:49;;;;;;;1.48;1.40;;;24.80;78.80;;;;;;4965813;28;20050;-76
2023/09/08 03:23:15;;;;;;;1.80;1.70;;;24.80;78.70;;;;;;4964444;28;20031;-76
2023/09/08 03:25:41;;;;;;;1.60;1.50;;;24.70;78.70;;;;;;4966677;28;20042;-76
2023/09/08 03:28:06;;;;;;;1.00;1.00;;;24.80;78.70;;;;;;4965338;28;20135;-76
2023/09/08 03:30:32;;;;;;;1.38;1.38;;;24.80;78.80;;;;;;4964985;28;20047;-76
2023/09/08 03:32:57;;;;;;;1.30;1.30;;;24.80;78.70;;;;;;4962975;28;20591;-76
2023/09/08 03:35:23;;;;;;;1.17;1.17;;;24.80;78.90;;;;;;4964084;28;20475;-76
2023/09/08 03:37:49;;;;;;;1.45;1.35;;;24.80;78.90;;;;;;4968549;28;20050;-76
2023/09/08 03:40:14;;;;;;;1.10;1.10;;;24.70;79.00;;;;;;4965579;28;20433;-76
2023/09/08 03:42:41;;;;;;;1.60;1.50;;;24.80;79.10;;;;;;4964744;28;20042;-76
2023/09/08 03:45:07;;;;;;;1.25;1.25;;;24.80;79.00;;;;;;4966075;28;20062;-76
2023/09/08 03:47:33;;;;;;;1.52;1.17;;;24.80;79.10;;;;;;4967153;28;20027;-76
2023/09/08 03:49:58;;;;;;;1.20;1.20;;;24.70;79.00;;;;;;4966361;28;20039;-76
2023/09/08 03:52:25;;;;;;;1.20;1.20;;;24.70;78.70;;;;;;4967336;28;20074;-76
2023/09/08 03:54:50;;;;;;;1.15;1.15;;;24.70;78.90;;;;;;4942087;28;20424;-76
2023/09/08 03:57:16;;;;;;;1.02;1.02;;;24.70;79.00;;;;;;4964911;28;20526;-76
2023/09/08 03:59:41;;;;;;;2.15;1.50;;;24.70;79.00;;;;;;4964660;28;20051;-76
2023/09/08 04:02:07;;;;;;;1.10;0.95;;;24.70;79.20;;;;;;4966226;28;20548;-76
2023/09/08 04:04:32;;;;;;;1.30;1.20;;;24.70;79.10;;;;;;4967774;28;20047;-76
2023/09/08 04:06:58;;;;;;;1.10;1.10;;;24.70;79.10;;;;;;4966922;28;20050;-76
2023/09/08 04:09:23;;;;;;;1.45;0.90;;;24.70;79.10;;;;;;4964566;28;20533;-76
2023/09/08 04:11:49;;;;;;;1.10;1.10;;;24.70;79.20;;;;;;4965401;28;20043;-76
2023/09/08 04:14:15;;;;;;;1.30;1.30;;;24.70;79.20;;;;;;4961845;28;20073;-76
2023/09/08 04:16:40;;;;;;;1.10;1.10;;;24.70;79.40;;;;;;4969459;28;20043;-76
2023/09/08 04:19:06;;;;;;;1.38;1.38;;;24.70;79.40;;;;;;4968026;28;20050;-76
2023/09/08 04:21:31;;;;;;;1.30;1.20;;;24.70;79.40;;;;;;4967299;28;20081;-76
2023/09/08 04:23:57;;;;;;;1.35;1.25;;;24.70;79.20;;;;;;4966076;28;20125;-76
2023/09/08 04:26:22;;;;;;;1.70;1.60;;;24.70;79.10;;;;;;4968307;28;20058;-76
2023/09/08 04:28:48;;;;;;;1.50;1.40;;;24.70;79.00;;;;;;4966726;28;20039;-76
2023/09/08 04:31:13;;;;;;;1.25;1.25;;;24.70;79.20;;;;;;4968404;28;20042;-76
2023/09/08 04:33:39;;;;;;;1.10;1.10;;;24.70;79.20;;;;;;4967644;28;20053;-76
2023/09/08 04:36:05;;;;;;;1.10;1.10;;;24.70;79.30;;;;;;4970028;28;20528;-76
2023/09/08 04:38:30;;;;;;;1.50;1.40;;;24.70;79.40;;;;;;4968867;28;20046;-76
2023/09/08 04:40:56;;;;;;;1.20;1.20;;;24.70;79.40;;;;;;4969526;28;20118;-76
2023/09/08 04:43:21;;;;;;;1.42;1.33;;;24.70;79.30;;;;;;4970682;28;20136;-76
2023/09/08 04:45:47;;;;;;;1.27;1.27;;;24.70;79.30;;;;;;4968567;28;20046;-76
2023/09/08 04:48:12;;;;;;;1.23;1.23;;;24.70;79.60;;;;;;4968129;28;20050;-76
2023/09/08 04:50:38;;;;;;;1.17;1.17;;;24.70;79.30;;;;;;4969512;28;20505;-76
2023/09/08 04:53:04;;;;;;;1.23;1.08;;;24.70;79.30;;;;;;4967770;28;20058;-76
2023/09/08 04:55:29;;;;;;;1.17;1.17;;;24.70;79.20;;;;;;4970343;28;24780;-76
2023/09/08 04:57:55;;;;;;;1.50;1.50;;;24.70;79.20;;;;;;4967234;28;20027;-76
2023/09/08 05:00:20;;;;;;;1.60;1.50;;;24.70;79.20;;;;;;4968215;28;20043;-76
2023/09/08 05:02:46;;;;;;;1.20;1.20;;;24.70;79.30;;;;;;4968707;28;20075;-76
2023/09/08 05:05:11;;;;;;;1.10;1.10;;;24.70;79.40;;;;;;4968319;28;20054;-76
2023/09/08 05:07:37;;;;;;;1.23;1.23;;;24.70;79.40;;;;;;4970213;28;20042;-76
2023/09/08 05:10:03;;;;;;;1.75;1.05;;;24.70;78.70;;;;;;4968773;28;20504;-76
2023/09/08 05:12:28;;;;;;;1.35;1.35;;;24.70;79.00;;;;;;4967115;28;20102;-75
2023/09/08 05:14:56;;;;;;;1.25;1.20;;;24.70;78.60;;;;;;4967286;28;20132;-75
2023/09/08 05:17:23;;;;;;;1.40;1.40;;;24.70;78.80;;;;;;4967164;28;20054;-76
2023/09/08 05:19:49;;;;;;;1.45;1.45;;;24.70;78.80;;;;;;4969748;28;20043;-76
2023/09/08 05:22:14;;;;;;;1.52;1.52;;;24.70;78.70;;;;;;4967275;28;20049;-75
2023/09/08 05:24:40;;;;;;;1.35;1.35;;;24.70;78.90;;;;;;4968348;28;20142;-76
2023/09/08 05:27:05;;;;;;;1.40;1.40;;;24.70;79.10;;;;;;4964991;28;20548;-76
2023/09/08 05:29:31;;;;;;;1.10;1.10;;;24.70;79.40;;;;;;4966976;28;30344;-76
2023/09/08 05:31:56;;;;;;;0.98;0.98;;;24.70;79.20;;;;;;4968860;28;20070;-76
2023/09/08 05:34:22;;;;;;;1.50;1.40;;;24.70;79.30;;;;;;4967186;28;20051;-74
2023/09/08 05:36:48;;;;;;;1.40;1.30;;;24.70;79.20;;;;;;4967488;28;20097;-75
2023/09/08 05:39:14;;;;;;;2.00;1.52;;;24.70;78.80;;;;;;4966898;28;20535;-75
2023/09/08 05:41:40;;;;;;;1.48;1.38;;;24.70;78.90;;;;;;4964173;28;20039;-75
2023/09/08 05:44:05;;;;;;;1.40;1.30;;;24.70;78.90;;;;;;4968745;28;20046;-75
2023/09/08 05:46:31;;;;;;;1.70;1.45;;;24.70;79.00;;;;;;4968353;28;20065;-75
2023/09/08 05:48:57;;;;;;;1.27;1.27;;;24.70;79.10;;;;;;4968941;28;20569;-75
2023/09/08 05:51:23;;;;;;;1.10;1.10;;;24.70;79.20;;;;;;4964282;28;20134;-75
2023/09/08 05:53:48;;;;;;;1.20;1.20;;;24.70;79.40;;;;;;4965442;28;20039;-75
2023/09/08 05:56:14;;;;;;;1.50;1.40;;;24.60;79.20;;;;;;4964886;28;20140;-75
2023/09/08 05:58:39;;;;;;;1.40;1.40;;;24.70;79.30;;;;;;4969514;28;20081;-75
2023/09/08 06:01:06;;;;;;;1.60;1.50;;;24.60;79.30;;;;;;4968073;28;20043;-76
2023/09/08 06:03:32;;;;;;;1.38;1.27;;;24.60;79.30;;;;;;4966609;28;20046;-76
2023/09/08 06:05:58;;;;;;;1.50;1.40;;;24.60;79.30;;;;;;4966613;28;20035;-74
2023/09/08 06:08:23;;;;;;;1.23;1.23;;;24.60;79.20;;;;;;4966790;28;20049;-74
2023/09/08 06:10:49;;;;;;;1.38;1.30;;;24.70;79.30;;;;;;4966768;28;20097;-74
2023/09/08 06:13:14;;;;;;;1.10;1.10;;;24.70;79.20;;;;;;4965967;28;20039;-75
2023/09/08 06:15:40;;;;;;;1.48;1.38;;;24.60;79.80;;;;;;4966902;28;20055;-75
2023/09/08 06:18:06;;;;;;;1.33;1.33;;;24.70;79.20;;;;;;4967922;28;20146;-75
2023/09/08 06:20:31;;;;;;;1.33;1.23;;;24.60;79.00;;;;;;4966579;28;20047;-74
2023/09/08 06:22:57;;;;;;;1.40;1.13;;;24.70;79.30;;;;;;4966685;28;20105;-75
2023/09/08 06:25:22;;;;;;;1.15;1.10;;;24.70;79.30;;;;;;4969320;28;20047;-75
2023/09/08 06:27:48;;;;;;;1.48;1.38;;;24.60;79.20;;;;;;4967746;28;20126;-75
2023/09/08 06:30:16;;;;;;;1.33;1.33;;;24.70;79.20;;;;;;4966215;28;20058;-75
2023/09/08 06:32:41;;;;;;;1.10;1.10;;;24.70;79.20;;;;;;4967060;28;20121;-75
2023/09/08 06:35:07;;;;;;;1.23;1.23;;;24.70;79.30;;;;;;4966778;28;20158;-75
2023/09/08 06:37:38;;;;;;;1.40;1.40;;;24.60;79.20;;;;;;4968850;28;20043;-75
2023/09/08 06:40:05;;;;;;;1.60;1.50;;;24.60;79.10;;;;;;4966276;28;20133;-75
2023/09/08 06:42:30;;;;;;;1.35;1.27;;;24.60;79.10;;;;;;4963529;28;20031;-75
2023/09/08 06:44:56;;;;;;;1.38;1.30;;;24.60;79.10;;;;;;4964623;28;20097;-75
2023/09/08 06:47:21;;;;;;;1.27;1.20;;;24.60;79.00;;;;;;4965388;28;20047;-75
2023/09/08 06:49:47;;;;;;;1.30;1.30;;;24.60;79.80;;;;;;4969365;28;20078;-75
2023/09/08 06:52:12;;;;;;;1.20;1.20;;;24.60;79.20;;;;;;4966002;28;20497;-75
2023/09/08 06:54:38;;;;;;;1.55;1.45;;;24.70;79.20;;;;;;4966196;28;20066;-77
2023/09/08 06:57:04;;;;;;;1.20;1.20;;;24.60;79.10;;;;;;4964252;28;20042;-75
2023/09/08 06:59:29;;;;;;;1.30;1.20;;;24.60;79.20;;;;;;4966161;28;20062;-75
2023/09/08 07:01:55;;;;;;;1.23;1.23;;;24.60;79.10;;;;;;4965331;28;20059;-75
2023/09/08 07:04:21;;;;;;;1.30;1.30;;;24.60;79.00;;;;;;4967304;28;20038;-75
2023/09/08 07:06:46;;;;;;;1.67;1.58;;;24.60;79.00;;;;;;4966312;28;20508;-75
2023/09/08 07:09:12;;;;;;;1.20;1.15;;;24.70;79.80;;;;;;4962687;28;20118;-75
2023/09/08 07:11:38;;;;;;;1.00;1.00;;;24.60;79.00;;;;;;4965902;28;20066;-75
2023/09/08 07:14:03;;;;;;;1.38;1.27;;;24.70;79.10;;;;;;4968080;28;20035;-75
2023/09/08 07:16:29;;;;;;;1.17;1.17;;;24.60;79.00;;;;;;4967958;28;20057;-75
2023/09/08 07:18:54;;;;;;;1.33;1.33;;;24.60;78.90;;;;;;4965861;28;20572;-75
2023/09/08 07:21:20;;;;;;;1.10;1.10;;;24.70;78.90;;;;;;4965674;28;20031;-75
2023/09/08 07:23:46;;;;;;;1.35;1.35;;;24.70;78.80;;;;;;4966288;28;20039;-75
2023/09/08 07:26:12;;;;;;;1.17;1.17;;;24.70;78.80;;;;;;4965389;28;20062;-75
2023/09/08 07:28:37;;;;;;;1.10;1.10;;;24.70;78.70;;;;;;4967339;28;20508;-75
2023/09/08 07:31:03;;;;;;;1.15;1.15;;;24.70;78.60;;;;;;4966764;28;20030;-75
2023/09/08 07:33:29;;;;;;;1.30;1.30;;;24.70;78.50;;;;;;4963337;28;20050;-75
2023/09/08 07:35:55;;;;;;;1.30;1.20;;;24.70;78.60;;;;;;4965592;28;20051;-75
2023/09/08 07:38:20;;;;;;;1.20;1.20;;;24.70;78.60;;;;;;4966070;28;20050;-75
2023/09/08 07:40:46;;;;;;;1.20;1.20;;;24.70;78.60;;;;;;4967516;28;20552;-75
2023/09/08 07:43:11;;;;;;;1.10;1.10;;;24.70;78.60;;;;;;4967540;28;20070;-75
2023/09/08 07:45:37;;;;;;;1.20;1.20;;;24.70;78.60;;;;;;4966025;28;20030;-75
2023/09/08 07:48:03;;;;;;;1.33;1.33;;;24.70;78.60;;;;;;4966506;28;20176;-75
2023/09/08 07:50:28;;;;;;;1.40;1.30;;;24.70;78.50;;;;;;4966479;28;20046;-75
2023/09/08 07:52:56;;;;;;;1.60;1.50;;;24.70;78.60;;;;;;4967630;28;20051;-75
2023/09/08 07:55:28;;;;;;;1.38;1.27;;;24.70;78.60;;;;;;4967863;28;20042;-75
2023/09/08 07:57:54;;;;;;;1.15;1.15;;;24.70;78.60;;;;;;4966922;28;20500;-75
2023/09/08 08:00:19;;;;;;;1.48;1.38;;;24.70;78.60;;;;;;4969663;28;20066;-75
2023/09/08 08:02:55;;;;;;;1.10;1.10;;;24.70;78.60;;;;;;4970129;28;20047;-75
2023/09/08 08:05:20;;;;;;;3.15;1.30;;;24.70;78.60;;;;;;4970600;28;20074;-75
2023/09/08 08:07:46;;;;;;;1.38;1.38;;;24.70;78.90;;;;;;4971758;28;20136;-75
2023/09/08 08:10:12;;;;;;;1.30;1.30;;;24.80;78.50;;;;;;4970735;28;20046;-75
2023/09/08 08:12:38;;;;;;;1.10;1.10;;;24.80;78.80;;;;;;4966129;28;20047;-75
2023/09/08 08:15:07;;;;;;;1.15;1.15;;;24.80;78.50;;;;;;4968152;28;20452;-75
2023/09/08 08:17:32;;;;;;;0.93;0.93;;;24.80;78.40;;;;;;4968902;28;20046;-75
2023/09/08 08:19:58;;;;;;;1.50;1.40;;;24.80;78.50;;;;;;4970238;28;20046;-75
2023/09/08 08:22:26;;;;;;;1.17;1.17;;;24.80;78.30;;;;;;4971138;28;20539;-75
2023/09/08 08:24:52;;;;;;;1.30;1.20;;;24.80;78.40;;;;;;4966817;28;20051;-75
2023/09/08 08:27:17;;;;;;;1.38;1.27;;;24.80;78.40;;;;;;4966756;28;20034;-75
2023/09/08 08:29:44;;;;;;;1.17;1.17;;;24.80;78.50;;;;;;4966156;28;20062;-75
2023/09/08 08:32:12;;;;;;;1.17;1.17;;;24.80;78.20;;;;;;4970169;28;20572;-75
2023/09/08 08:34:37;;;;;;;1.35;1.35;;;24.80;78.30;;;;;;4969206;28;20057;-75
2023/09/08 08:37:03;;;;;;;2.08;1.35;;;24.80;78.60;;;;;;4967477;28;20043;-75
2023/09/08 08:39:28;;;;;;;1.50;1.40;;;24.80;78.40;;;;;;4966960;28;20142;-75
2023/09/08 08:41:54;;;;;;;1.90;1.60;;;24.80;78.40;;;;;;4969722;28;20037;-75
2023/09/08 08:44:20;;;;;;;1.48;1.40;;;24.80;78.30;;;;;;4969767;28;20073;-75
2023/09/08 08:46:46;;;;;;;1.25;1.20;;;24.80;78.40;;;;;;4967414;28;20104;-75
2023/09/08 08:49:11;;;;;;;1.30;1.20;;;24.80;78.40;;;;;;4967396;28;20039;-75
2023/09/08 08:51:37;;;;;;;1.25;1.25;;;24.80;78.40;;;;;;4967351;28;20070;-75
2023/09/08 08:54:04;;;;;;;1.33;1.17;;;24.70;78.30;;;;;;4951921;28;20054;-75
2023/09/08 08:56:33;;;;;;;1.45;1.35;;;24.80;78.40;;;;;;4968377;28;20042;-75
2023/09/08 08:58:58;;;;;;;1.60;1.10;;;24.80;78.40;;;;;;4969922;28;20058;-75
2023/09/08 09:01:24;;;;;;;1.20;1.20;;;24.80;78.20;;;;;;4967967;28;20062;-75
2023/09/08 09:03:50;;;;;;;1.30;1.30;;;24.80;78.20;;;;;;4967904;28;20509;-75
2023/09/08 09:06:16;;;;;;;1.65;1.55;;;24.80;78.20;;;;;;4968898;28;20086;-75
2023/09/08 09:08:45;;;;;;;1.35;1.25;;;24.80;78.20;;;;;;4968132;28;20077;-75
2023/09/08 09:11:11;;;;;;;1.10;1.10;;;24.80;78.20;;;;;;4968380;28;20440;-75
2023/09/08 09:13:37;;;;;;;1.52;1.42;;;24.90;78.20;;;;;;4970148;28;20045;-75
2023/09/08 09:16:10;;;;;;;1.38;1.38;;;24.80;78.10;;;;;;4969323;28;20066;-75
2023/09/08 09:18:55;;;;;;;1.48;1.40;;;24.90;78.20;;;;;;4966805;28;20385;-75
2023/09/08 09:21:21;;;;;;;1.35;1.35;;;24.90;78.10;;;;;;4966648;28;20066;-75
2023/09/08 09:23:47;;;;;;;1.58;1.48;;;24.90;78.30;;;;;;4968408;28;20067;-75
2023/09/08 09:26:14;;;;;;;1.50;1.40;;;24.90;78.40;;;;;;4969466;28;20038;-75
2023/09/08 09:28:49;;;;;;;1.52;1.42;;;24.90;78.30;;;;;;4966243;28;20027;-75
2023/09/08 09:31:14;;;;;;;1.42;1.33;;;24.90;78.30;;;;;;4969787;28;20051;-75
2023/09/08 09:33:40;;;;;;;1.63;1.52;;;24.90;78.40;;;;;;4967842;28;20121;-75
2023/09/08 09:36:07;;;;;;;1.40;1.30;;;24.90;78.30;;;;;;4968281;28;20042;-75
2023/09/08 09:38:32;;;;;;;1.40;1.30;;;24.90;78.30;;;;;;4967909;28;20042;-75
2023/09/08 09:40:58;;;;;;;1.38;1.27;;;24.90;78.30;;;;;;4968821;28;20046;-75
2023/09/08 09:43:23;;;;;;;1.77;1.67;;;24.90;78.30;;;;;;4968104;28;20019;-75
2023/09/08 09:45:49;;;;;;;1.40;1.40;;;24.90;78.20;;;;;;4967985;28;20043;-75
2023/09/08 09:48:14;;;;;;;1.52;1.42;;;24.90;78.10;;;;;;4964909;28;20117;-75
2023/09/08 09:50:41;;;;;;;1.33;1.33;;;24.90;78.00;;;;;;4964682;28;20522;-75
2023/09/08 09:53:12;;;;;;;1.60;1.50;;;24.90;78.00;;;;;;4968172;28;20117;-75
2023/09/08 09:55:39;;;;;;;1.55;1.45;;;24.90;78.00;;;;;;4968449;28;20046;-75
2023/09/08 09:58:04;;;;;;;1.58;1.48;;;24.90;78.00;;;;;;4967549;28;20051;-75
2023/09/08 10:00:31;;;;;;;1.63;1.52;;;24.90;78.00;;;;;;4967152;28;20497;-75
2023/09/08 10:02:57;;;;;;;1.73;1.63;;;24.90;78.10;;;;;;4968564;28;20131;-75
2023/09/08 10:05:26;;;;;;;1.50;1.50;;;24.90;78.10;;;;;;4960679;28;20042;-75
2023/09/08 10:07:51;;;;;;;1.55;1.50;;;24.90;78.00;;;;;;4969477;28;20042;-75
2023/09/08 10:10:17;;;;;;;1.75;1.65;;;24.90;78.00;;;;;;4970105;28;20049;-75
2023/09/08 10:12:45;;;;;;;1.52;1.50;;;24.90;78.00;;;;;;4966413;28;20051;-75
2023/09/08 10:15:10;;;;;;;1.30;1.30;;;24.90;78.80;;;;;;4967735;28;20047;-75
2023/09/08 10:17:36;;;;;;;1.40;1.40;;;24.90;78.00;;;;;;4965529;28;20046;-75
2023/09/08 10:20:10;;;;;;;1.45;1.35;;;24.90;78.00;;;;;;4978610;28;20197;-75
2023/09/08 10:22:36;;;;;;;1.20;1.20;;;24.90;78.00;;;;;;4969178;28;20039;-75
2023/09/08 10:25:03;;;;;;;1.27;1.27;;;24.90;78.10;;;;;;4966125;28;20065;-75
2023/09/08 10:27:29;;;;;;;1.20;1.20;;;24.90;78.10;;;;;;4966981;28;20042;-75
2023/09/08 10:29:54;;;;;;;1.20;1.20;;;24.90;78.10;;;;;;4966303;28;20059;-75
2023/09/08 10:32:20;;;;;;;1.65;1.55;;;24.90;78.10;;;;;;4967331;28;20047;-75
2023/09/08 10:34:46;;;;;;;1.23;1.20;;;24.90;78.10;;;;;;4967601;28;20043;-75
2023/09/08 10:37:21;;;;;;;1.70;1.50;;;24.90;78.10;;;;;;4967552;28;20031;-75
2023/09/08 10:39:47;;;;;;;1.77;1.67;;;24.90;78.10;;;;;;4965792;28;20042;-75
2023/09/08 10:42:25;;;;;;;1.40;1.40;;;24.90;78.10;;;;;;4967013;28;20104;-75
2023/09/08 10:44:57;;;;;;;1.40;1.40;;;24.90;78.10;;;;;;4965461;28;20195;-75
2023/09/08 10:47:45;;;;;;;1.80;1.70;;;24.90;78.10;;;;;;4967704;28;20051;-75
2023/09/08 10:50:17;;;;;;;1.40;1.30;;;24.90;78.00;;;;;;4962881;28;20047;-75
2023/09/08 10:52:42;;;;;;;1.20;1.10;;;24.90;78.00;;;;;;4968897;28;20050;-75
2023/09/08 10:55:08;;;;;;;1.45;1.35;;;24.90;78.00;;;;;;4965305;28;20053;-75
2023/09/08 10:57:34;;;;;;;1.52;1.42;;;24.90;78.00;;;;;;4965510;28;20485;-75
2023/09/08 11:00:04;;;;;;;1.30;1.30;;;24.90;78.10;;;;;;4964840;28;20425;-75
2023/09/08 11:02:44;;;;;;;1.38;1.38;;;25.00;78.00;;;;;;4966120;28;20096;-75
2023/09/08 11:05:13;;;;;;;1.52;1.42;;;25.00;78.10;;;;;;4964299;28;20820;-75
2023/09/08 11:07:40;;;;;;;1.50;1.42;;;25.00;78.00;;;;;;4966694;28;20039;-75
2023/09/08 11:10:06;;;;;;;1.50;1.40;;;25.00;78.10;;;;;;4966679;28;20039;-75
2023/09/08 11:12:32;;;;;;;1.10;1.10;;;25.00;78.30;;;;;;4965247;28;20497;-75
2023/09/08 11:15:00;;;;;;;1.48;1.38;;;25.00;78.10;;;;;;4964958;28;20134;-75
2023/09/08 11:17:29;;;;;;;1.70;1.60;;;25.00;78.40;;;;;;4966787;28;20047;-75
2023/09/08 11:19:55;;;;;;;1.80;1.70;;;25.00;78.30;;;;;;4966329;28;20057;-75
2023/09/08 11:22:23;;;;;;;1.60;1.45;;;25.00;78.20;;;;;;4967066;28;20050;-75
2023/09/08 11:24:49;;;;;;;1.90;1.42;;;25.00;78.20;;;;;;4965102;28;20054;-75
2023/09/08 11:27:14;;;;;;;1.40;1.30;;;25.00;78.30;;;;;;4964621;28;20089;-75
2023/09/08 11:29:40;;;;;;;1.30;1.30;;;25.10;78.40;;;;;;4966175;28;20561;-75
2023/09/08 11:32:07;;;;;;;1.50;1.40;;;25.10;78.40;;;;;;4965042;28;20054;-75
2023/09/08 11:34:34;;;;;;;1.13;1.13;;;25.10;78.50;;;;;;4971332;28;20053;-75
2023/09/08 11:37:00;;;;;;;1.50;1.40;;;25.10;78.40;;;;;;4967723;28;20043;-75
2023/09/08 11:39:25;;;;;;;1.77;1.67;;;25.10;78.40;;;;;;4971041;28;20035;-75
2023/09/08 11:41:52;;;;;;;1.23;1.23;;;25.10;78.40;;;;;;4969804;28;20031;-75
2023/09/08 11:44:18;;;;;;;1.42;1.40;;;25.10;78.50;;;;;;4968839;28;20034;-75
2023/09/08 11:46:43;;;;;;;1.70;1.60;;;25.00;78.50;;;;;;4971515;28;20046;-75
2023/09/08 11:49:09;;;;;;;1.70;1.60;;;25.10;78.60;;;;;;4966635;28;20061;-75
2023/09/08 11:51:34;;;;;;;1.85;1.75;;;25.00;78.60;;;;;;4964894;28;20039;-75
2023/09/08 11:54:00;;;;;;;1.52;1.40;;;25.10;78.60;;;;;;4969342;28;20508;-75
2023/09/08 11:56:25;;;;;;;1.60;1.50;;;25.10;78.60;;;;;;4968374;28;20070;-75
2023/09/08 11:58:51;;;;;;;1.42;1.42;;;25.10;78.50;;;;;;4967193;28;20043;-75
2023/09/08 12:01:17;;;;;;;1.50;1.50;;;25.10;78.60;;;;;;4968381;28;20094;-75
2023/09/08 12:03:53;;;;;;;1.55;1.55;;;25.10;78.50;;;;;;4969924;28;20126;-75
2023/09/08 12:06:19;;;;;;;1.90;1.80;;;25.10;78.50;;;;;;4970346;28;20047;-75
2023/09/08 12:08:45;;;;;;;1.30;1.30;;;25.10;78.40;;;;;;4967266;28;20402;-75
2023/09/08 12:11:10;;;;;;;1.70;1.60;;;25.10;79.20;;;;;;4970028;28;20484;-75
2023/09/08 12:13:36;;;;;;;1.63;1.52;;;25.10;78.50;;;;;;4970492;28;20045;-75
2023/09/08 12:16:02;;;;;;;1.63;1.58;;;25.10;78.20;;;;;;4969292;28;20416;-75
2023/09/08 12:18:39;;;;;;;1.60;1.50;;;25.10;78.20;;;;;;4970183;28;20042;-75
2023/09/08 12:21:05;;;;;;;1.65;1.58;;;25.10;78.30;;;;;;4967127;28;20061;-75
2023/09/08 12:23:31;;;;;;;1.23;1.23;;;25.10;78.10;;;;;;4970129;28;20030;-75
2023/09/08 12:25:57;;;;;;;1.40;1.40;;;25.10;78.10;;;;;;4970995;28;20045;-74
2023/09/08 12:28:22;;;;;;;1.50;1.50;;;25.10;78.10;;;;;;4970044;28;20039;-75
2023/09/08 12:30:52;;;;;;;1.35;1.20;;;25.10;78.10;;;;;;4965581;28;20042;-75
2023/09/08 12:33:19;;;;;;;1.60;1.50;;;25.20;78.20;;;;;;4967880;28;20512;-75
2023/09/08 12:35:45;;;;;;;1.58;1.48;;;25.20;78.00;;;;;;4966350;28;20394;-75
2023/09/08 12:38:11;;;;;;;1.60;1.50;;;25.20;78.00;;;;;;4969901;28;20098;-75
2023/09/08 12:40:37;;;;;;;1.63;1.52;;;25.20;77.80;;;;;;4969278;28;20042;-75
2023/09/08 12:43:03;;;;;;;1.40;1.30;;;25.20;77.80;;;;;;4969783;28;20042;-75